Time;durP1;ratioP1;P1;durP2;ratioP2;P2;SDS_P1;SDS_P2;PMS_P1;PMS_P2;Temp;Humidity;BMP_temperature;BMP_pressure;BME280_temperature;BME280_humidity;BME280_pressure;Samples;Min_cycle;Max_cycle;Signal;HPM_P1;HPM_P2
2023/02/10 00:00:04;;;;;;;;;;;2.20;99.90;2.70;101519.00;;;;344429;28;89185;-89
2023/02/10 00:00:15;;;;;;;;;;;2.20;99.90;2.90;101519.00;;;;340685;28;82569;-89
2023/02/10 00:00:27;;;;;;;;;;;2.10;99.90;2.90;101517.00;;;;344012;28;90354;-89
2023/02/10 00:00:39;;;;;;;;;;;2.20;99.90;2.80;101511.00;;;;345561;28;83596;-89
2023/02/10 00:00:51;;;;;;;;;;;2.20;99.90;2.90;101514.00;;;;341698;28;87313;-88
2023/02/10 00:01:10;;;;;;;;;;;2.20;99.90;3.00;101513.00;;;;343335;28;83569;-89
2023/02/10 00:01:24;;;;;;;;;;;2.20;99.90;2.90;101520.00;;;;344345;28;88183;-89
2023/02/10 00:01:36;;;;;;;;;;;2.20;99.90;2.90;101519.00;;;;344789;28;82357;-89
2023/02/10 00:01:48;;;;;;;;;;;2.20;99.90;2.90;101519.00;;;;343010;28;91652;-89
2023/02/10 00:02:00;;;;;;;;;;;2.20;99.90;2.80;101510.00;;;;347468;28;83430;-89
2023/02/10 00:02:11;;;;;;;;;;;2.20;99.90;2.80;101513.00;;;;341593;28;91589;-89
2023/02/10 00:02:23;;;;;;;;;;;2.20;99.90;2.70;101514.00;;;;345856;28;83434;-88
2023/02/10 00:02:35;;;;;;;;;;;2.20;99.90;2.80;101507.00;;;;342995;28;89225;-89
2023/02/10 00:02:47;;;;;;;;;;;2.10;99.90;2.80;101516.00;;;;346014;28;83490;-89
2023/02/10 00:02:59;;;;;;;;;;;2.10;99.90;2.80;101517.00;;;;345839;28;87861;-88
2023/02/10 00:03:11;;;;;;;;;;;2.10;99.90;2.80;101518.00;;;;341929;28;82440;-89
2023/02/10 00:03:22;;;;;;;;;;;2.10;99.90;2.80;101517.00;;;;342981;28;88242;-89
2023/02/10 00:03:34;;;;;;;;;;;2.10;99.90;2.80;101521.00;;;;344623;28;83554;-89
2023/02/10 00:03:47;;;;;;;;;;;2.10;99.90;2.90;101513.00;;;;342741;28;88770;-89
2023/02/10 00:03:59;;;;;;;;;;;2.20;99.90;2.90;101523.00;;;;342051;28;82490;-89
2023/02/10 00:04:14;;;;;;;;;;;2.10;99.90;2.90;101502.00;;;;345826;28;87791;-89
2023/02/10 00:04:25;;;;;;;;;;;2.10;99.90;2.80;101518.00;;;;344535;28;83478;-89
2023/02/10 00:04:37;;;;;;;;;;;2.10;99.90;2.80;101505.00;;;;343173;28;87942;-88
2023/02/10 00:04:50;;;;;;;;;;;2.10;99.90;2.80;101520.00;;;;344880;28;82601;-89
2023/02/10 00:05:03;;;;;;;;;;;2.10;99.90;2.80;101515.00;;;;344386;28;91690;-88
2023/02/10 00:05:15;;;;;;;;;;;2.10;99.90;2.70;101514.00;;;;343271;28;83526;-89
2023/02/10 00:05:27;;;;;;;;;;;2.10;99.90;2.70;101510.00;;;;345734;28;92280;-89
2023/02/10 00:05:39;;;;;;;;;;;2.10;99.90;2.70;101507.00;;;;346208;28;83352;-89
2023/02/10 00:05:51;;;;;;;;;;;2.10;99.90;2.80;101512.00;;;;344360;28;90305;-88
2023/02/10 00:06:03;;;;;;;;;;;2.10;99.90;2.70;101516.00;;;;346201;28;82540;-89
2023/02/10 00:06:15;;;;;;;;;;;2.10;99.90;2.70;101513.00;;;;341691;28;91400;-88
2023/02/10 00:06:27;;;;;;;;;;;2.10;99.90;2.90;101520.00;;;;344620;28;83641;-88
2023/02/10 00:06:40;;;;;;;;;;;2.10;99.90;2.90;101516.00;;;;344423;28;88630;-88
2023/02/10 00:06:52;;;;;;;;;;;2.10;99.90;2.80;101507.00;;;;342059;28;83372;-89
2023/02/10 00:07:04;;;;;;;;;;;2.10;99.90;2.80;101509.00;;;;342935;28;89243;-89
2023/02/10 00:07:15;;;;;;;;;;;2.10;99.90;2.80;101515.00;;;;344415;28;83540;-89
2023/02/10 00:07:27;;;;;;;;;;;2.10;99.90;2.80;101516.00;;;;343064;28;89881;-89
2023/02/10 00:07:39;;;;;;;;;;;2.10;99.90;2.80;101507.00;;;;344842;28;82545;-89
2023/02/10 00:07:51;;;;;;;;;;;2.10;99.90;2.80;101506.00;;;;345851;28;89061;-89
2023/02/10 00:08:02;;;;;;;;;;;2.10;99.90;2.80;101514.00;;;;343451;28;82446;-89
2023/02/10 00:08:14;;;;;;;;;;;2.10;99.90;2.90;101508.00;;;;346998;28;90042;-88
2023/02/10 00:08:26;;;;;;;;;;;2.10;99.90;2.90;101517.00;;;;344738;28;83514;-88
2023/02/10 00:08:38;;;;;;;;;;;2.10;99.90;3.00;101522.00;;;;345877;28;91802;-89
2023/02/10 00:08:51;;;;;;;;;;;2.10;99.90;2.90;101512.00;;;;346331;28;83516;-88
2023/02/10 00:09:02;;;;;;;;;;;2.10;99.90;2.90;101515.00;;;;345821;28;87951;-89
2023/02/10 00:09:14;;;;;;;;;;;2.10;99.90;3.00;101520.00;;;;346205;28;82610;-89
2023/02/10 00:09:26;;;;;;;;;;;2.10;99.90;3.00;101518.00;;;;344276;28;91346;-89
2023/02/10 00:09:38;;;;;;;;;;;2.10;99.90;2.80;101506.00;;;;343479;28;83441;-88
2023/02/10 00:09:49;;;;;;;;;;;2.20;99.90;2.80;101517.00;;;;345676;28;90398;-89
2023/02/10 00:10:01;;;;;;;;;;;2.10;99.90;3.00;101521.00;;;;344924;28;83520;-88
2023/02/10 00:10:13;;;;;;;;;;;2.10;99.90;3.00;101509.00;;;;344808;28;89209;-88
2023/02/10 00:10:25;;;;;;;;;;;2.10;99.90;2.90;101515.00;;;;344736;28;82578;-89
2023/02/10 00:10:37;;;;;;;;;;;2.10;99.90;2.90;101515.00;;;;346279;28;90528;-89
2023/02/10 00:10:48;;;;;;;;;;;2.10;99.90;2.90;101511.00;;;;346433;28;82503;-88
2023/02/10 00:11:05;;;;;;;;;;;2.10;99.90;2.80;101518.00;;;;341891;28;89105;-88
2023/02/10 00:11:17;;;;;;;;;;;2.20;99.90;2.80;101516.00;;;;346541;28;83468;-89
2023/02/10 00:11:59;;;;;;;;;;;2.10;99.90;2.90;101526.00;;;;343745;28;83585;-89
2023/02/10 00:12:12;;;;;;;;;;;2.10;99.90;2.90;101509.00;;;;346267;28;88384;-89
2023/02/10 00:12:23;;;;;;;;;;;2.10;99.90;2.80;101521.00;;;;345038;28;82596;-89
2023/02/10 00:12:37;;;;;;;;;;;2.10;99.90;2.70;101514.00;;;;342166;28;89008;-89
2023/02/10 00:12:49;;;;;;;;;;;2.10;99.90;2.80;101508.00;;;;343778;28;84081;-87
2023/02/10 00:13:00;;;;;;;;;;;2.10;99.90;2.80;101510.00;;;;343331;28;91467;-88
2023/02/10 00:13:12;;;;;;;;;;;2.10;99.90;2.80;101522.00;;;;342397;28;83440;-88
2023/02/10 00:13:24;;;;;;;;;;;2.10;99.90;2.70;101515.00;;;;345851;28;89546;-88
2023/02/10 00:13:37;;;;;;;;;;;2.10;99.90;2.80;101510.00;;;;344912;28;83598;-89
2023/02/10 00:13:49;;;;;;;;;;;2.10;99.90;2.80;101514.00;;;;341638;28;91972;-88
2023/02/10 00:14:00;;;;;;;;;;;2.10;99.90;2.80;101512.00;;;;344731;28;83321;-88
2023/02/10 00:14:13;;;;;;;;;;;2.10;99.90;2.80;101520.00;;;;345901;28;90703;-89
2023/02/10 00:14:25;;;;;;;;;;;2.10;99.90;2.90;101526.00;;;;342565;28;82433;-89
2023/02/10 00:14:37;;;;;;;;;;;2.10;99.90;2.70;101517.00;;;;344713;28;89466;-88
2023/02/10 00:14:49;;;;;;;;;;;2.10;99.90;2.80;101511.00;;;;345082;28;82472;-88
2023/02/10 00:15:01;;;;;;;;;;;2.10;99.90;2.90;101511.00;;;;342168;28;90609;-88
2023/02/10 00:15:13;;;;;;;;;;;2.10;99.90;2.80;101508.00;;;;343771;28;83893;-88
2023/02/10 00:15:24;;;;;;;;;;;2.10;99.90;2.80;101525.00;;;;346059;28;91579;-89
2023/02/10 00:15:37;;;;;;;;;;;2.10;99.90;2.80;101515.00;;;;343798;28;83362;-89
2023/02/10 00:15:48;;;;;;;;;;;2.10;99.90;2.80;101518.00;;;;344645;28;92521;-88
2023/02/10 00:16:01;;;;;;;;;;;2.10;99.90;2.80;101512.00;;;;343825;28;83429;-87
2023/02/10 00:16:14;;;;;;;;;;;2.10;99.90;2.80;101526.00;;;;344524;28;90633;-89
2023/02/10 00:16:26;;;;;;;;;;;2.10;99.90;2.80;101523.00;;;;343607;28;83296;-88
2023/02/10 00:16:38;;;;;;;;;;;2.10;99.90;2.80;101513.00;;;;343468;28;91810;-88
2023/02/10 00:16:50;;;;;;;;;;;2.10;99.90;2.80;101516.00;;;;343867;28;83451;-89
2023/02/10 00:17:02;;;;;;;;;;;2.10;99.90;2.90;101516.00;;;;343409;28;88450;-89
2023/02/10 00:17:17;;;;;;;;;;;2.10;99.90;2.90;101521.00;;;;346524;28;83563;-89
2023/02/10 00:17:28;;;;;;;;;;;2.10;99.90;3.00;101520.00;;;;344561;28;89555;-87
2023/02/10 00:17:40;;;;;;;;;;;2.00;99.90;3.00;101527.00;;;;345025;28;82543;-88
2023/02/10 00:17:52;;;;;;;;;;;2.10;99.90;2.80;101521.00;;;;340799;28;89244;-88
2023/02/10 00:18:04;;;;;;;;;;;2.10;99.90;2.80;101521.00;;;;346472;28;82573;-88
2023/02/10 00:18:16;;;;;;;;;;;2.10;99.90;2.90;101519.00;;;;344964;28;90615;-89
2023/02/10 00:18:28;;;;;;;;;;;2.10;99.90;2.90;101523.00;;;;345296;28;82489;-88
2023/02/10 00:18:40;;;;;;;;;;;2.10;99.90;2.90;101524.00;;;;344941;28;91421;-88
2023/02/10 00:18:52;;;;;;;;;;;2.10;99.90;2.90;101521.00;;;;345019;28;83567;-88
2023/02/10 00:19:04;;;;;;;;;;;2.10;99.90;2.90;101522.00;;;;346332;28;90358;-88
2023/02/10 00:19:16;;;;;;;;;;;2.10;99.90;2.80;101514.00;;;;346775;28;82493;-89
2023/02/10 00:19:28;;;;;;;;;;;2.10;99.90;2.70;101514.00;;;;341769;28;91357;-89
2023/02/10 00:19:40;;;;;;;;;;;2.10;99.90;2.80;101523.00;;;;345162;28;82632;-88
2023/02/10 00:19:51;;;;;;;;;;;2.10;99.90;2.80;101531.00;;;;348640;27;92254;-89
2023/02/10 00:22:33;;;;;;;;;;;2.00;99.90;3.00;101524.00;;;;215271;28;89501;-85
2023/02/10 00:22:45;;;;;;;;;;;2.10;99.90;2.80;101522.00;;;;340332;28;91398;-93
2023/02/10 00:22:57;;;;;;;;;;;2.10;99.90;2.80;101525.00;;;;339515;28;82576;-93
2023/02/10 00:23:09;;;;;;;;;;;2.10;99.90;2.90;101518.00;;;;337643;28;92801;-93
2023/02/10 00:23:20;;;;;;;;;;;2.00;99.90;2.90;101528.00;;;;342409;28;82533;-93
2023/02/10 00:23:32;;;;;;;;;;;2.10;99.90;3.00;101527.00;;;;339283;28;91528;-93
2023/02/10 00:23:44;;;;;;;;;;;2.10;99.90;2.90;101532.00;;;;341143;28;82449;-93
2023/02/10 00:23:56;;;;;;;;;;;2.10;99.90;3.00;101517.00;;;;340591;28;91110;-93
2023/02/10 00:24:08;;;;;;;;;;;2.10;99.90;3.00;101526.00;;;;340978;28;83074;-93
2023/02/10 00:24:20;;;;;;;;;;;2.10;99.90;3.00;101533.00;;;;339020;28;90859;-94
2023/02/10 00:24:32;;;;;;;;;;;2.10;99.90;3.00;101515.00;;;;341940;28;82525;-94
2023/02/10 00:24:44;;;;;;;;;;;2.10;99.90;2.90;101516.00;;;;339033;28;89946;-92
2023/02/10 00:24:56;;;;;;;;;;;2.10;99.90;3.00;101529.00;;;;339594;28;83317;-93
2023/02/10 00:25:08;;;;;;;;;;;2.10;99.90;3.00;101528.00;;;;339424;28;91393;-92
2023/02/10 00:25:19;;;;;;;;;;;2.10;99.90;3.00;101531.00;;;;342189;28;83332;-93
2023/02/10 00:25:31;;;;;;;;;;;2.10;99.90;2.90;101526.00;;;;340370;28;91448;-92
2023/02/10 00:25:43;;;;;;;;;;;2.10;99.90;2.90;101529.00;;;;339723;28;83368;-93
2023/02/10 00:25:55;;;;;;;;;;;2.10;99.90;2.90;101529.00;;;;339334;28;89344;-93
2023/02/10 00:26:08;;;;;;;;;;;2.10;99.90;2.90;101533.00;;;;338457;28;83573;-93
2023/02/10 00:26:19;;;;;;;;;;;2.10;99.90;2.80;101530.00;;;;338049;28;87820;-91
2023/02/10 00:26:31;;;;;;;;;;;2.10;99.90;2.90;101522.00;;;;340923;28;83380;-93
2023/02/10 00:26:43;;;;;;;;;;;2.10;99.90;2.80;101526.00;;;;336525;28;90113;-92
2023/02/10 00:26:56;;;;;;;;;;;2.10;99.90;2.80;101527.00;;;;338764;28;82572;-92
2023/02/10 00:27:08;;;;;;;;;;;2.10;99.90;2.80;101538.00;;;;340702;28;91002;-93
2023/02/10 00:27:23;;;;;;;;;;;2.10;99.90;2.90;101529.00;;;;341038;28;83290;-92
2023/02/10 00:27:35;;;;;;;;;;;2.10;99.90;2.80;101535.00;;;;339396;28;91267;-93
2023/02/10 00:27:47;;;;;;;;;;;2.10;99.90;2.80;101529.00;;;;339550;28;83506;-93
2023/02/10 00:27:59;;;;;;;;;;;2.10;99.90;2.80;101532.00;;;;340525;28;91602;-92
2023/02/10 00:28:11;;;;;;;;;;;2.10;99.90;2.60;101541.00;;;;341020;28;82582;-93
2023/02/10 00:28:23;;;;;;;;;;;2.10;99.90;2.70;101528.00;;;;340699;28;91000;-93
2023/02/10 00:28:35;;;;;;;;;;;2.10;99.90;2.70;101538.00;;;;339648;28;83437;-93
2023/02/10 00:28:47;;;;;;;;;;;2.10;99.90;2.80;101535.00;;;;339184;28;91479;-92
2023/02/10 00:28:59;;;;;;;;;;;2.10;99.90;2.70;101524.00;;;;340989;28;83407;-92
2023/02/10 00:29:11;;;;;;;;;;;2.10;99.90;2.70;101530.00;;;;339269;28;90902;-93
2023/02/10 00:29:23;;;;;;;;;;;2.00;99.90;2.70;101529.00;;;;339452;28;82479;-93
2023/02/10 00:29:35;;;;;;;;;;;2.00;99.90;2.70;101532.00;;;;340542;28;91540;-92
2023/02/10 00:29:48;;;;;;;;;;;2.10;99.90;2.60;101533.00;;;;342493;28;83458;-94
2023/02/10 00:30:00;;;;;;;;;;;2.00;99.90;2.60;101535.00;;;;337976;28;90258;-92
2023/02/10 00:30:12;;;;;;;;;;;2.00;99.90;2.60;101533.00;;;;339893;28;82533;-92
2023/02/10 00:30:24;;;;;;;;;;;2.00;99.90;2.60;101529.00;;;;339260;28;90997;-92
2023/02/10 00:30:37;;;;;;;;;;;2.00;99.90;2.60;101539.00;;;;340385;28;82664;-92
2023/02/10 00:30:48;;;;;;;;;;;2.00;99.90;2.60;101524.00;;;;337716;28;92031;-93
2023/02/10 00:31:11;;;;;;;;;;;2.00;99.90;2.50;101534.00;;;;339311;28;83501;-92
2023/02/10 00:31:23;;;;;;;;;;;2.00;99.90;2.40;101541.00;;;;338861;28;92581;-93
2023/02/10 00:31:35;;;;;;;;;;;1.90;99.90;2.30;101539.00;;;;339457;28;82493;-92
2023/02/10 00:31:47;;;;;;;;;;;1.90;99.90;2.30;101545.00;;;;339211;28;90668;-92
2023/02/10 00:31:59;;;;;;;;;;;1.90;99.90;2.60;101540.00;;;;339431;28;83489;-91
2023/02/10 00:32:10;;;;;;;;;;;1.90;99.90;2.50;101532.00;;;;340361;28;90363;-92
2023/02/10 00:32:22;;;;;;;;;;;1.90;99.90;2.60;101532.00;;;;340493;28;82674;-93
2023/02/10 00:32:36;;;;;;;;;;;1.90;99.90;2.70;101537.00;;;;340282;28;91928;-92
2023/02/10 00:32:48;;;;;;;;;;;1.90;99.90;2.70;101534.00;;;;340878;28;83467;-92
2023/02/10 00:33:00;;;;;;;;;;;1.90;99.90;2.70;101534.00;;;;337671;28;90555;-92
2023/02/10 00:33:12;;;;;;;;;;;1.90;99.90;2.60;101533.00;;;;340842;28;83506;-92
2023/02/10 00:33:24;;;;;;;;;;;1.90;99.90;2.50;101541.00;;;;340204;28;91645;-93
2023/02/10 00:33:36;;;;;;;;;;;1.90;99.90;2.50;101536.00;;;;339429;28;83480;-92
2023/02/10 00:33:47;;;;;;;;;;;1.90;99.90;2.50;101531.00;;;;339169;28;90245;-92
2023/02/10 00:33:59;;;;;;;;;;;1.90;99.90;2.50;101535.00;;;;339490;28;82385;-93
2023/02/10 00:34:13;;;;;;;;;;;1.90;99.90;2.40;101535.00;;;;339116;28;90143;-93
2023/02/10 00:34:25;;;;;;;;;;;1.90;99.90;2.50;101532.00;;;;337981;28;83538;-92
2023/02/10 00:34:37;;;;;;;;;;;1.90;99.90;2.50;101532.00;;;;340346;28;90117;-92
2023/02/10 00:34:49;;;;;;;;;;;1.90;99.90;2.50;101533.00;;;;339575;28;82480;-92
2023/02/10 00:35:01;;;;;;;;;;;1.90;99.90;2.50;101536.00;;;;339056;28;90265;-93
2023/02/10 00:35:12;;;;;;;;;;;1.90;99.90;2.50;101542.00;;;;340860;28;82542;-93
2023/02/10 00:35:24;;;;;;;;;;;1.90;99.90;2.50;101536.00;;;;341768;28;91288;-93
2023/02/10 00:35:36;;;;;;;;;;;1.90;99.90;2.50;101544.00;;;;339522;28;82510;-91
2023/02/10 00:35:49;;;;;;;;;;;1.90;99.90;2.40;101531.00;;;;340722;28;91971;-93
2023/02/10 00:36:05;;;;;;;;;;;1.80;99.90;2.50;101537.00;;;;340753;28;83374;-92
2023/02/10 00:36:17;;;;;;;;;;;1.80;99.90;2.60;101539.00;;;;339114;28;90451;-93
2023/02/10 00:36:30;;;;;;;;;;;1.80;99.90;2.60;101539.00;;;;342221;28;83341;-93
2023/02/10 00:36:42;;;;;;;;;;;1.80;99.90;2.60;101534.00;;;;337849;28;90549;-93
2023/02/10 00:36:54;;;;;;;;;;;1.90;99.90;2.70;101532.00;;;;339583;28;83441;-93
2023/02/10 00:37:05;;;;;;;;;;;1.80;99.90;2.70;101535.00;;;;339173;28;90823;-93
2023/02/10 00:37:17;;;;;;;;;;;1.80;99.90;2.70;101534.00;;;;335477;29;83282;-93
2023/02/10 00:37:29;;;;;;;;;;;1.80;99.90;2.60;101535.00;;;;337624;28;92764;-92
2023/02/10 00:37:41;;;;;;;;;;;1.90;99.90;2.70;101539.00;;;;339624;28;83395;-93
2023/02/10 00:37:53;;;;;;;;;;;1.90;99.90;2.60;101530.00;;;;339002;28;89390;-92
2023/02/10 00:38:05;;;;;;;;;;;1.90;99.90;2.50;101540.00;;;;341189;28;83526;-92
2023/02/10 00:38:19;;;;;;;;;;;1.90;99.90;2.50;101540.00;;;;339242;28;90826;-93
2023/02/10 00:38:31;;;;;;;;;;;1.90;99.90;2.50;101542.00;;;;339803;28;83321;-92
2023/02/10 00:38:44;;;;;;;;;;;1.80;99.90;2.50;101539.00;;;;340619;28;91228;-93
2023/02/10 00:38:55;;;;;;;;;;;1.80;99.90;2.60;101530.00;;;;338599;28;83406;-93
2023/02/10 00:39:12;;;;;;;;;;;1.90;99.90;2.70;101535.00;;;;339348;28;90454;-93
2023/02/10 00:39:24;;;;;;;;;;;1.80;99.90;2.60;101541.00;;;;342313;28;83414;-93
2023/02/10 00:39:36;;;;;;;;;;;1.80;99.90;2.50;101535.00;;;;338048;28;91562;-92
2023/02/10 00:39:48;;;;;;;;;;;1.90;99.90;2.40;101534.00;;;;337280;28;83427;-92
2023/02/10 00:40:00;;;;;;;;;;;1.80;99.90;2.40;101532.00;;;;339345;28;90249;-93
2023/02/10 00:40:12;;;;;;;;;;;1.80;99.90;2.50;101544.00;;;;341103;28;83514;-92
2023/02/10 00:40:24;;;;;;;;;;;1.80;99.90;2.50;101538.00;;;;338079;28;91626;-92
2023/02/10 00:40:36;;;;;;;;;;;1.80;99.90;2.60;101538.00;;;;339749;28;82333;-93
2023/02/10 00:40:48;;;;;;;;;;;1.80;99.90;2.50;101537.00;;;;340304;28;89372;-92
2023/02/10 00:41:07;;;;;;;;;;;1.80;99.90;2.60;101534.00;;;;341064;28;83463;-92
2023/02/10 00:41:20;;;;;;;;;;;1.80;99.90;2.60;101531.00;;;;336641;28;90465;-93
2023/02/10 00:41:32;;;;;;;;;;;1.80;99.90;2.60;101537.00;;;;337284;28;83487;-93
2023/02/10 00:41:44;;;;;;;;;;;1.80;99.90;2.40;101535.00;;;;339434;28;91417;-92
2023/02/10 00:41:57;;;;;;;;;;;1.80;99.90;2.50;101539.00;;;;341105;28;82455;-93
2023/02/10 00:42:09;;;;;;;;;;;1.80;99.90;2.50;101535.00;;;;340687;28;90377;-92
2023/02/10 00:42:21;;;;;;;;;;;1.80;99.90;2.60;101535.00;;;;336931;28;82598;-92
2023/02/10 00:42:32;;;;;;;;;;;1.80;99.90;2.50;101537.00;;;;337788;28;91207;-92
2023/02/10 00:42:44;;;;;;;;;;;1.80;99.90;2.60;101545.00;;;;339854;28;82479;-93
2023/02/10 00:43:00;;;;;;;;;;;1.80;99.90;2.60;101524.00;;;;339384;28;91411;-91
2023/02/10 00:43:12;;;;;;;;;;;1.80;99.90;2.60;101529.00;;;;341052;28;83460;-93
2023/02/10 00:43:24;;;;;;;;;;;1.80;99.90;2.70;101534.00;;;;338948;28;90152;-91
2023/02/10 00:43:36;;;;;;;;;;;1.90;99.90;2.70;101532.00;;;;339309;28;82555;-93
2023/02/10 00:43:48;;;;;;;;;;;1.80;99.90;2.70;101528.00;;;;340227;28;92139;-94
2023/02/10 00:43:59;;;;;;;;;;;1.90;99.90;2.70;101526.00;;;;340585;28;83350;-93
2023/02/10 00:44:11;;;;;;;;;;;1.90;99.90;2.70;101532.00;;;;340346;28;90304;-93
2023/02/10 00:44:23;;;;;;;;;;;1.80;99.90;2.70;101535.00;;;;337848;28;83593;-92
2023/02/10 00:44:35;;;;;;;;;;;1.90;99.90;2.70;101537.00;;;;341963;28;88055;-92
2023/02/10 00:44:47;;;;;;;;;;;1.80;99.90;2.70;101528.00;;;;339375;28;83397;-93
2023/02/10 00:44:59;;;;;;;;;;;1.90;99.90;2.60;101531.00;;;;339087;28;91590;-92
2023/02/10 00:45:11;;;;;;;;;;;1.80;99.90;2.60;101533.00;;;;339435;28;82560;-93
2023/02/10 00:45:23;;;;;;;;;;;1.80;99.90;2.70;101525.00;;;;340351;28;90569;-93
2023/02/10 00:45:35;;;;;;;;;;;1.90;99.90;2.70;101529.00;;;;340978;28;83490;-92
2023/02/10 00:45:47;;;;;;;;;;;1.90;99.90;2.70;101532.00;;;;339142;28;91314;-92
2023/02/10 00:45:59;;;;;;;;;;;1.90;99.90;2.60;101535.00;;;;339572;28;83456;-92
2023/02/10 00:46:15;;;;;;;;;;;1.90;99.90;2.50;101542.00;;;;340456;28;91603;-94
2023/02/10 00:46:27;;;;;;;;;;;1.90;99.90;2.60;101539.00;;;;340855;28;82562;-92
2023/02/10 00:46:39;;;;;;;;;;;1.90;99.90;2.60;101537.00;;;;340532;28;90100;-92
2023/02/10 00:46:51;;;;;;;;;;;1.90;99.90;2.60;101532.00;;;;340769;28;82578;-92
2023/02/10 00:47:03;;;;;;;;;;;1.90;99.90;2.60;101536.00;;;;337796;28;91917;-93
2023/02/10 00:47:14;;;;;;;;;;;1.90;99.90;2.60;101527.00;;;;342175;28;83514;-93
2023/02/10 00:47:26;;;;;;;;;;;1.90;99.90;2.60;101536.00;;;;340547;28;89330;-93
2023/02/10 00:47:38;;;;;;;;;;;1.90;99.90;2.60;101535.00;;;;339574;28;82544;-93
2023/02/10 00:47:50;;;;;;;;;;;1.90;99.90;2.50;101538.00;;;;337905;28;91886;-93
2023/02/10 00:48:02;;;;;;;;;;;1.90;99.90;2.60;101535.00;;;;340836;28;83544;-93
2023/02/10 00:48:14;;;;;;;;;;;1.90;99.90;2.60;101540.00;;;;340413;28;91855;-92
2023/02/10 00:48:26;;;;;;;;;;;1.90;99.90;2.60;101528.00;;;;341066;28;83434;-93
2023/02/10 00:48:38;;;;;;;;;;;1.90;99.90;2.60;101530.00;;;;337853;28;90668;-92
2023/02/10 00:48:50;;;;;;;;;;;1.90;99.90;2.60;101533.00;;;;339733;28;82369;-93
2023/02/10 00:49:03;;;;;;;;;;;1.90;99.90;2.60;101538.00;;;;339508;28;90259;-92
2023/02/10 00:49:15;;;;;;;;;;;1.90;99.90;2.50;101543.00;;;;337165;28;83432;-93
2023/02/10 00:49:28;;;;;;;;;;;1.90;99.90;2.50;101529.00;;;;339475;28;91076;-93
2023/02/10 00:49:39;;;;;;;;;;;1.90;99.90;2.50;101537.00;;;;339729;28;83477;-93
2023/02/10 00:49:52;;;;;;;;;;;1.90;99.90;2.50;101538.00;;;;338969;28;91366;-93
2023/02/10 00:50:04;;;;;;;;;;;1.90;99.90;2.50;101536.00;;;;339459;28;83584;-91
2023/02/10 00:50:16;;;;;;;;;;;1.90;99.90;2.50;101539.00;;;;337722;28;91122;-92
2023/02/10 00:50:28;;;;;;;;;;;1.90;99.90;2.50;101532.00;;;;340748;28;82552;-93
2023/02/10 00:50:40;;;;;;;;;;;1.90;99.90;2.50;101539.00;;;;341644;28;91185;-92
2023/02/10 00:50:52;;;;;;;;;;;1.90;99.90;2.50;101532.00;;;;340733;28;83587;-92
2023/02/10 00:51:04;;;;;;;;;;;1.90;99.90;2.50;101541.00;;;;340347;28;91380;-92
2023/02/10 00:51:16;;;;;;;;;;;1.90;99.90;2.50;101537.00;;;;341959;28;83569;-93
2023/02/10 00:51:28;;;;;;;;;;;1.90;99.90;2.50;101538.00;;;;338860;28;91899;-92
2023/02/10 00:51:39;;;;;;;;;;;1.90;99.90;2.50;101537.00;;;;339503;28;82622;-93
2023/02/10 00:51:51;;;;;;;;;;;1.90;99.90;2.50;101533.00;;;;338852;28;91825;-92
2023/02/10 00:52:03;;;;;;;;;;;1.90;99.90;2.50;101523.00;;;;338001;28;83416;-92
2023/02/10 00:52:15;;;;;;;;;;;1.90;99.90;2.60;101539.00;;;;338930;28;91705;-92
2023/02/10 00:52:27;;;;;;;;;;;1.90;99.90;2.60;101537.00;;;;338203;28;83279;-92
2023/02/10 00:52:39;;;;;;;;;;;1.90;99.90;2.60;101535.00;;;;340197;28;90578;-92
2023/02/10 00:52:50;;;;;;;;;;;1.90;99.90;2.50;101538.00;;;;339437;28;82636;-92
2023/02/10 00:53:02;;;;;;;;;;;1.90;99.90;2.50;101534.00;;;;339364;28;91439;-91
2023/02/10 00:53:14;;;;;;;;;;;1.80;99.90;2.50;101535.00;;;;338053;28;83497;-92
2023/02/10 00:53:26;;;;;;;;;;;1.80;99.90;2.50;101531.00;;;;337934;28;91403;-92
2023/02/10 00:53:38;;;;;;;;;;;1.80;99.90;2.50;101525.00;;;;338325;28;82325;-93
2023/02/10 00:53:50;;;;;;;;;;;1.90;99.90;2.50;101526.00;;;;340302;28;91158;-93
2023/02/10 00:54:02;;;;;;;;;;;1.90;99.90;2.50;101536.00;;;;340854;28;82584;-92
2023/02/10 00:54:14;;;;;;;;;;;1.90;99.90;2.50;101535.00;;;;340358;28;90377;-92
2023/02/10 00:54:26;;;;;;;;;;;1.80;99.90;2.50;101538.00;;;;340722;28;82545;-93
2023/02/10 00:54:38;;;;;;;;;;;1.80;99.90;2.50;101532.00;;;;336407;28;91143;-93
2023/02/10 00:54:50;;;;;;;;;;;1.90;99.90;2.50;101533.00;;;;338237;28;82537;-92
2023/02/10 00:55:02;;;;;;;;;;;1.90;99.90;2.50;101530.00;;;;339137;28;90621;-93
2023/02/10 00:55:13;;;;;;;;;;;1.80;99.90;2.50;101532.00;;;;336832;28;83205;-92
2023/02/10 00:55:25;;;;;;;;;;;1.90;99.90;2.50;101538.00;;;;338764;28;91491;-93
2023/02/10 00:55:37;;;;;;;;;;;1.80;99.90;2.50;101538.00;;;;339400;28;83354;-93
2023/02/10 00:55:49;;;;;;;;;;;1.80;99.90;2.60;101528.00;;;;338929;28;91499;-93
2023/02/10 00:56:01;;;;;;;;;;;1.90;99.90;2.50;101539.00;;;;339667;28;82340;-93
2023/02/10 00:56:13;;;;;;;;;;;1.80;99.90;2.50;101535.00;;;;340413;28;91681;-92
2023/02/10 00:56:25;;;;;;;;;;;1.90;99.90;2.50;101546.00;;;;341107;28;83413;-92
2023/02/10 00:56:36;;;;;;;;;;;1.90;99.90;2.50;101541.00;;;;338822;28;91327;-93
2023/02/10 00:56:48;;;;;;;;;;;1.80;99.90;2.50;101537.00;;;;340637;28;83456;-93
2023/02/10 00:57:00;;;;;;;;;;;1.80;99.90;2.50;101535.00;;;;339291;28;91399;-93
2023/02/10 00:57:12;;;;;;;;;;;1.80;99.90;2.60;101531.00;;;;340938;28;83430;-93
2023/02/10 00:57:24;;;;;;;;;;;1.80;99.90;2.50;101535.00;;;;341523;28;91550;-93
2023/02/10 00:57:36;;;;;;;;;;;1.80;99.90;2.60;101530.00;;;;338136;28;83408;-93
2023/02/10 00:57:48;;;;;;;;;;;1.90;99.90;2.60;101524.00;;;;339069;28;91439;-92
2023/02/10 00:57:59;;;;;;;;;;;1.80;99.90;2.60;101526.00;;;;340880;28;82612;-92
2023/02/10 00:58:11;;;;;;;;;;;1.90;99.90;2.70;101529.00;;;;336766;28;90384;-92
2023/02/10 00:58:23;;;;;;;;;;;1.90;99.90;2.70;101534.00;;;;339468;28;83481;-92
2023/02/10 00:58:35;;;;;;;;;;;1.90;99.90;2.70;101537.00;;;;340274;28;90402;-92
2023/02/10 00:58:47;;;;;;;;;;;1.90;99.90;2.70;101532.00;;;;336725;28;83333;-93
2023/02/10 00:58:59;;;;;;;;;;;1.90;99.90;2.70;101537.00;;;;337566;28;91409;-92
2023/02/10 00:59:12;;;;;;;;;;;1.90;99.90;2.70;101537.00;;;;338198;28;82327;-92
2023/02/10 00:59:24;;;;;;;;;;;1.90;99.90;2.60;101530.00;;;;338971;28;91225;-92
2023/02/10 00:59:36;;;;;;;;;;;1.90;99.90;2.60;101533.00;;;;339441;28;83492;-92
2023/02/10 00:59:48;;;;;;;;;;;1.90;99.90;2.70;101536.00;;;;337633;28;91551;-92
2023/02/10 01:00:00;;;;;;;;;;;1.90;99.90;2.80;101543.00;;;;339168;28;82371;-92
2023/02/10 01:00:12;;;;;;;;;;;1.90;99.90;2.70;101535.00;;;;341666;28;91575;-92
2023/02/10 01:00:24;;;;;;;;;;;1.90;99.90;2.70;101532.00;;;;338098;28;82432;-92
2023/02/10 01:00:36;;;;;;;;;;;1.90;99.90;2.60;101534.00;;;;336400;28;91821;-92
2023/02/10 01:00:48;;;;;;;;;;;1.90;99.90;2.60;101544.00;;;;339524;28;83412;-93
2023/02/10 01:01:00;;;;;;;;;;;1.90;99.90;2.60;101537.00;;;;340371;28;91209;-92
2023/02/10 01:01:12;;;;;;;;;;;1.90;99.90;2.60;101542.00;;;;339379;28;83437;-93
2023/02/10 01:01:23;;;;;;;;;;;1.90;99.90;2.60;101531.00;;;;340288;28;90421;-92
2023/02/10 01:01:35;;;;;;;;;;;1.90;99.90;2.70;101538.00;;;;340855;28;83638;-91
2023/02/10 01:01:47;;;;;;;;;;;1.90;99.90;2.60;101539.00;;;;339016;28;92774;-93
2023/02/10 01:01:59;;;;;;;;;;;1.90;99.90;2.60;101534.00;;;;340675;28;83341;-92
2023/02/10 01:02:11;;;;;;;;;;;1.90;99.90;2.60;101538.00;;;;340417;28;90502;-92
2023/02/10 01:02:23;;;;;;;;;;;1.90;99.90;2.60;101535.00;;;;340519;28;83455;-93
2023/02/10 01:02:35;;;;;;;;;;;1.90;99.90;2.50;101534.00;;;;339040;28;90563;-92
2023/02/10 01:02:47;;;;;;;;;;;1.90;99.90;2.60;101536.00;;;;340656;28;83505;-93
2023/02/10 01:02:59;;;;;;;;;;;1.90;99.90;2.60;101538.00;;;;339039;28;90753;-93
2023/02/10 01:03:11;;;;;;;;;;;1.90;99.90;2.60;101536.00;;;;339294;28;82586;-91
2023/02/10 01:03:23;;;;;;;;;;;1.90;99.90;2.60;101532.00;;;;338804;28;91899;-92
2023/02/10 01:03:35;;;;;;;;;;;1.90;99.90;2.70;101539.00;;;;336555;28;82456;-93
2023/02/10 01:03:47;;;;;;;;;;;1.90;99.90;2.70;101533.00;;;;338958;28;91371;-92
2023/02/10 01:03:59;;;;;;;;;;;1.90;99.90;2.70;101540.00;;;;340654;28;83294;-91